X  Close Metar Aviation Weather Data        EDDE Erfurt
Temperature
14°C Temperature
12°C Dewpoint
88% Humidity



Wind
13 KM/H
8 MPH
4 M/S
7 KTS



290°
WNW
Current Conditions

Cloudy with Drizzle Cloudy , Drizzle
Pressure 1018 (hPa) - 30.06 (inHg)
Visibility 30 (mile) - 48 (km)
Airport
Airport-code EDDE

Location: Erfurt
Distance: 25 (km)

Metar:
METAR EDDE 010950Z AUTO 29007KT 9999 -RADZ OVC015 14/12 Q1018 NOSIG

Time: 01.07.2022 11:50 CEST